createdAt,value
2023-04-02T00:01:40.138Z,9.36
2023-04-02T00:03:44.709Z,9.23
2023-04-02T00:05:52.268Z,9.29
2023-04-02T00:07:54.103Z,9.38
2023-04-02T00:09:55.835Z,9.35
2023-04-02T00:11:57.648Z,9.37
2023-04-02T00:14:00.578Z,9.36
2023-04-02T00:16:03.597Z,9.41
2023-04-02T00:18:05.660Z,9.51
2023-04-02T00:20:08.336Z,9.44
2023-04-02T00:22:12.324Z,9.51
2023-04-02T00:24:15.107Z,9.50
2023-04-02T00:26:36.880Z,9.40
2023-04-02T00:28:38.339Z,9.33
2023-04-02T00:30:45.782Z,9.30
2023-04-02T00:32:47.310Z,9.33
2023-04-02T00:34:48.838Z,9.33
2023-04-02T00:36:51.130Z,9.34
2023-04-02T00:38:52.894Z,9.39
2023-04-02T00:40:55.264Z,9.38
2023-04-02T00:42:58.571Z,9.40
2023-04-02T00:45:01.051Z,9.39
2023-04-02T00:47:04.313Z,9.48
2023-04-02T00:49:09.076Z,9.53
2023-04-02T00:51:13.671Z,9.51
2023-04-02T00:53:22.418Z,9.53
2023-04-02T00:55:35.625Z,9.58
2023-04-02T00:57:37.383Z,9.60
2023-04-02T00:59:47.684Z,9.48
2023-04-02T01:01:54.479Z,9.47
2023-04-02T01:04:00.041Z,9.52
2023-04-02T01:06:03.298Z,9.57
2023-04-02T01:08:07.572Z,9.62
2023-04-02T01:10:18.089Z,9.60
2023-04-02T01:12:19.860Z,9.50
2023-04-02T01:14:24.265Z,9.49
2023-04-02T01:16:33.275Z,9.43
2023-04-02T01:18:41.733Z,9.48
2023-04-02T01:20:52.148Z,9.59
2023-04-02T01:22:59.748Z,9.60
2023-04-02T01:25:02.190Z,9.59
2023-04-02T01:27:23.984Z,9.65
2023-04-02T01:29:25.476Z,9.71
2023-04-02T01:31:27.686Z,9.68
2023-04-02T01:33:30.378Z,9.70
2023-04-02T01:35:32.649Z,9.74
2023-04-02T01:37:34.526Z,9.70
2023-04-02T01:39:40.079Z,9.76
2023-04-02T01:41:44.240Z,9.81
2023-04-02T01:44:06.109Z,9.77
2023-04-02T01:46:26.650Z,9.71
2023-04-02T01:48:30.148Z,9.62
2023-04-02T01:50:37.063Z,9.66
2023-04-02T01:52:40.851Z,9.70
2023-04-02T01:54:42.477Z,9.71
2023-04-02T01:56:44.109Z,9.74
2023-04-02T01:58:45.679Z,9.80
2023-04-02T02:00:51.585Z,9.78
2023-04-02T02:02:53.247Z,9.69
2023-04-02T02:04:54.832Z,9.66
2023-04-02T02:06:58.636Z,9.70
2023-04-02T02:09:03.500Z,9.71
2023-04-02T02:11:05.704Z,9.68
2023-04-02T02:13:07.379Z,9.70
2023-04-02T02:15:14.045Z,9.71
2023-04-02T02:17:16.614Z,9.77
2023-04-02T02:19:37.056Z,9.69
2023-04-02T02:21:42.485Z,9.54
2023-04-02T02:23:43.978Z,9.01
2023-04-02T02:25:45.662Z,8.32
2023-04-02T02:27:48.672Z,8.02
2023-04-02T02:29:51.899Z,7.85
2023-04-02T02:31:53.558Z,7.83
2023-04-02T02:33:56.553Z,7.66
2023-04-02T02:36:00.796Z,7.49
2023-04-02T02:38:22.920Z,7.54
2023-04-02T02:40:27.642Z,7.85
2023-04-02T02:42:32.034Z,8.14
2023-04-02T02:44:34.154Z,8.40
2023-04-02T02:46:36.214Z,8.60
2023-04-02T02:48:38.041Z,8.74
2023-04-02T02:50:39.536Z,8.87
2023-04-02T02:52:42.471Z,8.90
2023-04-02T02:54:45.998Z,8.97
2023-04-02T02:56:48.865Z,9.11
2023-04-02T02:58:51.202Z,9.15
2023-04-02T03:00:52.930Z,9.20
2023-04-02T03:02:54.937Z,9.26
2023-04-02T03:04:56.671Z,9.25
2023-04-02T03:06:58.209Z,9.34
2023-04-02T03:09:04.527Z,9.40
2023-04-02T03:11:13.129Z,9.43
2023-04-02T03:13:14.598Z,9.49
2023-04-02T03:15:28.072Z,9.49
2023-04-02T03:17:31.106Z,9.49
2023-04-02T03:19:52.799Z,9.51
2023-04-02T03:21:55.992Z,9.50
2023-04-02T03:23:57.496Z,9.51
2023-04-02T03:26:00.909Z,9.57
2023-04-02T03:28:03.806Z,9.52
2023-04-02T03:30:21.576Z,9.49
2023-04-02T03:32:30.581Z,9.46
2023-04-02T03:34:33.975Z,9.48
2023-04-02T03:36:38.350Z,9.50
2023-04-02T03:38:41.710Z,9.42
2023-04-02T03:41:00.838Z,9.54
2023-04-02T03:43:06.498Z,9.58
2023-04-02T03:45:08.152Z,9.66
2023-04-02T03:47:14.729Z,9.63
2023-04-02T03:49:19.875Z,9.63
2023-04-02T03:51:24.348Z,9.67
2023-04-02T03:53:26.176Z,9.70
2023-04-02T03:55:29.151Z,9.69
2023-04-02T03:57:30.730Z,9.69
2023-04-02T03:59:45.031Z,9.66
2023-04-02T04:02:07.945Z,9.67
2023-04-02T04:04:11.048Z,9.77
2023-04-02T04:06:18.292Z,9.83
2023-04-02T04:08:22.304Z,9.87
2023-04-02T04:10:25.356Z,9.90
2023-04-02T04:12:28.468Z,9.90
2023-04-02T04:14:29.925Z,9.88
2023-04-02T04:16:40.485Z,9.72
2023-04-02T04:18:43.924Z,9.70
2023-04-02T04:20:48.007Z,9.64
2023-04-02T04:22:49.996Z,9.50
2023-04-02T04:24:51.511Z,8.80
2023-04-02T04:27:04.082Z,8.04
2023-04-02T04:29:24.429Z,7.74
2023-04-02T04:31:47.234Z,7.83
2023-04-02T04:33:50.713Z,7.59
2023-04-02T04:35:56.157Z,7.54
2023-04-02T04:37:59.048Z,7.47
2023-04-02T04:40:07.598Z,7.37
2023-04-02T04:42:10.620Z,7.42
2023-04-02T04:44:18.364Z,7.52
2023-04-02T04:46:21.686Z,7.69
2023-04-02T04:48:26.788Z,7.84
2023-04-02T04:50:32.998Z,7.97
2023-04-02T04:52:35.154Z,8.04
2023-04-02T04:54:37.490Z,8.08
2023-04-02T04:56:39.004Z,8.13
2023-04-02T04:58:59.190Z,8.05
2023-04-02T05:01:00.748Z,7.96
2023-04-02T05:03:11.336Z,7.92
2023-04-02T05:05:18.150Z,7.98
2023-04-02T05:07:19.596Z,7.94
2023-04-02T05:09:33.334Z,8.00
2023-04-02T05:11:55.072Z,7.98
2023-04-02T05:14:01.018Z,8.03
2023-04-02T05:16:11.788Z,8.00
2023-04-02T05:18:16.131Z,8.05
2023-04-02T05:20:18.184Z,8.24
2023-04-02T05:22:26.120Z,8.18
2023-04-02T05:24:39.901Z,7.96
2023-04-02T05:26:42.478Z,8.16
2023-04-02T05:29:02.907Z,8.24
2023-04-02T05:31:08.145Z,8.24
2023-04-02T05:33:23.607Z,8.29
2023-04-02T05:35:27.789Z,8.11
2023-04-02T05:37:29.541Z,8.07
2023-04-02T05:39:32.775Z,8.26
2023-04-02T05:41:44.121Z,8.41
2023-04-02T05:43:46.786Z,8.51
2023-04-02T05:45:52.264Z,8.55
2023-04-02T05:47:54.732Z,8.55
2023-04-02T05:49:56.292Z,8.71
2023-04-02T05:51:59.223Z,8.90
2023-04-02T05:54:01.496Z,8.98
2023-04-02T05:56:15.695Z,8.88
2023-04-02T05:58:34.414Z,8.91
2023-04-02T06:00:37.991Z,8.63
2023-04-02T06:02:53.202Z,8.30
2023-04-02T06:05:04.464Z,8.37
2023-04-02T06:07:14.504Z,8.47
2023-04-02T06:09:18.170Z,8.59
2023-04-02T06:11:24.691Z,8.79
2023-04-02T06:13:26.430Z,8.93
2023-04-02T06:15:28.107Z,9.10
2023-04-02T06:17:29.675Z,9.20
2023-04-02T06:19:32.291Z,9.45
2023-04-02T06:21:34.001Z,9.72
2023-04-02T06:23:41.632Z,9.76
2023-04-02T06:25:43.997Z,9.82
2023-04-02T06:27:45.612Z,10.13
2023-04-02T06:29:47.086Z,10.15
2023-04-02T06:31:52.861Z,10.31
2023-04-02T06:33:56.398Z,10.17
2023-04-02T06:35:58.048Z,10.21
2023-04-02T06:38:00.668Z,10.46
2023-04-02T06:40:02.958Z,10.39
2023-04-02T06:42:05.504Z,10.59
2023-04-02T06:44:09.243Z,10.82
2023-04-02T06:46:34.293Z,11.00
2023-04-02T06:48:36.457Z,11.09
2023-04-02T06:50:41.757Z,11.24
2023-04-02T06:52:47.865Z,11.40
2023-04-02T06:54:49.432Z,11.56
2023-04-02T06:56:52.049Z,11.56
2023-04-02T06:58:53.665Z,11.27
2023-04-02T07:00:55.424Z,11.01
2023-04-02T07:02:56.971Z,11.07
2023-04-02T07:05:09.322Z,11.21
2023-04-02T07:07:11.052Z,11.26
2023-04-02T07:09:12.709Z,11.32
2023-04-02T07:11:20.640Z,11.34
2023-04-02T07:13:23.001Z,11.09
2023-04-02T07:15:25.696Z,10.94
2023-04-02T07:17:27.445Z,10.73
2023-04-02T07:19:28.920Z,11.01
2023-04-02T07:21:30.459Z,11.12
2023-04-02T07:23:32.183Z,11.19
2023-04-02T07:25:33.913Z,11.21
2023-04-02T07:27:35.529Z,11.16
2023-04-02T07:29:42.609Z,11.47
2023-04-02T07:31:44.447Z,11.53
2023-04-02T07:33:46.209Z,11.70
2023-04-02T07:35:48.200Z,11.82
2023-04-02T07:37:49.739Z,11.82
2023-04-02T07:39:51.302Z,12.09
2023-04-02T07:41:53.899Z,12.21
2023-04-02T07:43:55.556Z,12.38
2023-04-02T07:45:57.241Z,12.52
2023-04-02T07:47:58.992Z,12.51
2023-04-02T07:50:00.510Z,12.61
2023-04-02T07:52:02.105Z,12.48
2023-04-02T07:54:04.732Z,12.34
2023-04-02T07:56:07.397Z,12.55
2023-04-02T07:58:09.334Z,12.47
2023-04-02T08:00:11.900Z,12.46
2023-04-02T08:02:23.506Z,12.20
2023-04-02T08:04:25.554Z,12.21
2023-04-02T08:06:27.603Z,12.27
2023-04-02T08:08:29.136Z,12.32
2023-04-02T08:10:31.039Z,12.45
2023-04-02T08:12:32.653Z,12.29
2023-04-02T08:14:34.215Z,11.98
2023-04-02T08:16:52.840Z,11.88
2023-04-02T08:18:54.478Z,11.99
2023-04-02T08:20:56.691Z,12.43
2023-04-02T08:22:58.312Z,12.82
2023-04-02T08:24:59.821Z,12.57
2023-04-02T08:27:02.327Z,12.80
2023-04-02T08:29:04.012Z,12.77
2023-04-02T08:31:05.623Z,13.09
2023-04-02T08:33:07.463Z,13.37
2023-04-02T08:35:10.030Z,13.69
2023-04-02T08:37:12.204Z,13.96
2023-04-02T08:39:14.010Z,13.67
2023-04-02T08:41:18.840Z,13.20
2023-04-02T08:43:28.825Z,13.05
2023-04-02T08:45:43.098Z,12.84
2023-04-02T08:47:45.376Z,12.76
2023-04-02T08:49:49.882Z,12.68
2023-04-02T08:51:52.246Z,12.93
2023-04-02T08:53:58.715Z,13.12
2023-04-02T08:56:06.069Z,13.38
2023-04-02T08:58:31.685Z,13.76
2023-04-02T09:00:43.190Z,14.09
2023-04-02T09:02:47.045Z,14.42
2023-04-02T09:04:48.950Z,14.57
2023-04-02T09:06:51.542Z,14.75
2023-04-02T09:08:53.092Z,14.53
2023-04-02T09:11:07.044Z,14.60
2023-04-02T09:13:14.370Z,15.02
2023-04-02T09:15:18.487Z,15.29
2023-04-02T09:17:21.270Z,15.11
2023-04-02T09:19:26.784Z,14.97
2023-04-02T09:21:35.164Z,14.85
2023-04-02T09:23:36.766Z,14.66
2023-04-02T09:25:43.393Z,13.94
2023-04-02T09:27:50.272Z,14.07
2023-04-02T09:29:54.206Z,14.26
2023-04-02T09:31:57.882Z,14.47
2023-04-02T09:33:59.445Z,14.33
2023-04-02T09:36:01.182Z,14.46
2023-04-02T09:38:10.734Z,14.80
2023-04-02T09:40:27.897Z,14.69
2023-04-02T09:42:29.413Z,14.56
2023-04-02T09:44:31.252Z,14.50
2023-04-02T09:46:32.913Z,14.68
2023-04-02T09:48:35.498Z,14.51
2023-04-02T09:50:37.435Z,14.65
2023-04-02T09:52:39.025Z,14.70
2023-04-02T09:54:43.492Z,14.56
2023-04-02T09:57:04.452Z,14.57
2023-04-02T09:59:21.839Z,14.62
2023-04-02T10:01:26.631Z,14.72
2023-04-02T10:03:28.872Z,14.62
2023-04-02T10:05:40.528Z,14.53
2023-04-02T10:07:43.939Z,14.66
2023-04-02T10:09:47.085Z,14.64
2023-04-02T10:11:48.583Z,14.91
2023-04-02T10:14:04.108Z,15.02
2023-04-02T10:16:07.079Z,14.95
2023-04-02T10:18:13.708Z,15.05
2023-04-02T10:20:18.405Z,15.27
2023-04-02T10:22:23.133Z,15.06
2023-04-02T10:24:27.609Z,14.70
2023-04-02T10:26:35.500Z,14.57
2023-04-02T10:28:42.809Z,14.48
2023-04-02T10:30:53.158Z,14.38
2023-04-02T10:33:05.836Z,14.03
2023-04-02T10:35:07.462Z,14.04
2023-04-02T10:37:12.478Z,14.41
2023-04-02T10:39:13.961Z,14.52
2023-04-02T10:41:19.080Z,14.58
2023-04-02T10:43:39.464Z,14.37
2023-04-02T10:45:50.070Z,13.88
2023-04-02T10:47:54.402Z,13.86
2023-04-02T10:50:08.227Z,13.49
2023-04-02T10:52:17.663Z,13.65
2023-04-02T10:54:39.292Z,14.00
2023-04-02T10:56:50.643Z,14.61
2023-04-02T10:58:57.786Z,15.07
2023-04-02T11:01:11.266Z,14.60
2023-04-02T11:03:24.318Z,14.62
2023-04-02T11:05:25.856Z,14.53
2023-04-02T11:07:27.605Z,14.25
2023-04-02T11:09:29.800Z,14.26
2023-04-02T11:11:41.755Z,14.11
2023-04-02T11:13:43.207Z,14.65
2023-04-02T11:15:44.900Z,14.24
2023-04-02T11:17:46.628Z,14.44
2023-04-02T11:19:48.284Z,14.17
2023-04-02T11:22:04.439Z,14.30
2023-04-02T11:24:32.801Z,14.19
2023-04-02T11:26:35.310Z,14.44
2023-04-02T11:28:36.793Z,14.42
2023-04-02T11:30:38.338Z,14.85
2023-04-02T11:32:42.449Z,15.34
2023-04-02T11:34:53.711Z,15.80
2023-04-02T11:37:02.182Z,16.21
2023-04-02T11:39:11.036Z,16.36
2023-04-02T11:41:38.608Z,15.85
2023-04-02T11:43:41.588Z,14.73
2023-04-02T11:45:51.830Z,14.38
2023-04-02T11:48:01.118Z,14.37
2023-04-02T11:50:04.208Z,15.09
2023-04-02T11:52:12.601Z,15.46
2023-04-02T11:54:28.453Z,15.01
2023-04-02T11:56:32.219Z,14.94
2023-04-02T11:58:46.233Z,14.97
2023-04-02T12:00:53.211Z,15.00
2023-04-02T12:03:13.889Z,14.73
2023-04-02T12:05:24.236Z,14.72
2023-04-02T12:07:52.226Z,14.89
2023-04-02T12:09:55.522Z,14.72
2023-04-02T12:11:58.152Z,15.08
2023-04-02T12:14:00.054Z,14.90
2023-04-02T12:16:01.606Z,14.71
2023-04-02T12:18:13.354Z,14.74
2023-04-02T12:20:22.891Z,14.82
2023-04-02T12:22:33.178Z,14.97
2023-04-02T12:24:34.703Z,15.17
2023-04-02T12:26:42.423Z,15.21
2023-04-02T12:28:46.462Z,15.41
2023-04-02T12:30:48.434Z,15.07
2023-04-02T12:32:50.549Z,14.98
2023-04-02T12:34:53.205Z,15.09
2023-04-02T12:36:55.874Z,14.96
2023-04-02T12:38:58.018Z,14.74
2023-04-02T12:41:00.809Z,15.01
2023-04-02T12:43:02.350Z,15.39
2023-04-02T12:45:04.915Z,15.61
2023-04-02T12:47:06.505Z,15.57
2023-04-02T12:49:13.995Z,15.56
2023-04-02T12:51:17.243Z,15.22
2023-04-02T12:53:23.263Z,15.52
2023-04-02T12:55:25.575Z,15.76
2023-04-02T12:57:30.579Z,15.68
2023-04-02T12:59:36.407Z,15.55
2023-04-02T13:01:38.087Z,15.23
2023-04-02T13:03:39.785Z,15.60
2023-04-02T13:05:42.725Z,15.77
2023-04-02T13:07:45.087Z,15.40
2023-04-02T13:09:47.305Z,15.50
2023-04-02T13:11:48.814Z,15.50
2023-04-02T13:13:50.590Z,15.55
2023-04-02T13:16:02.906Z,14.97
2023-04-02T13:18:19.221Z,15.04
2023-04-02T13:20:32.780Z,15.28
2023-04-02T13:22:34.382Z,15.48
2023-04-02T13:24:35.957Z,15.67
2023-04-02T13:26:37.565Z,15.04
2023-04-02T13:28:39.169Z,15.07
2023-04-02T13:30:41.104Z,15.25
2023-04-02T13:32:42.768Z,15.52
2023-04-02T13:34:44.254Z,15.69
2023-04-02T13:36:46.542Z,15.78
2023-04-02T13:38:47.990Z,15.61
2023-04-02T13:40:49.464Z,15.72
2023-04-02T13:42:51.057Z,15.47
2023-04-02T13:44:52.539Z,15.30
2023-04-02T13:46:54.261Z,15.06
2023-04-02T13:48:55.953Z,15.13
2023-04-02T13:50:57.463Z,15.26
2023-04-02T13:52:59.477Z,15.25
2023-04-02T13:55:01.421Z,15.25
2023-04-02T13:57:03.163Z,15.14
2023-04-02T13:59:05.682Z,15.30
2023-04-02T14:01:07.637Z,15.35
2023-04-02T14:03:14.494Z,15.50
2023-04-02T14:05:28.252Z,15.47
2023-04-02T14:07:48.471Z,15.56
2023-04-02T14:09:59.899Z,15.61
2023-04-02T14:12:13.412Z,15.34
2023-04-02T14:14:24.546Z,15.48
2023-04-02T14:16:38.504Z,15.48
2023-04-02T14:18:58.640Z,15.43
2023-04-02T14:21:12.964Z,15.19
2023-04-02T14:23:37.554Z,15.32
2023-04-02T14:25:42.289Z,15.46
2023-04-02T14:28:03.044Z,15.42
2023-04-02T14:30:06.664Z,15.40
2023-04-02T14:32:28.460Z,15.34
2023-04-02T14:34:29.959Z,15.70
2023-04-02T14:36:31.532Z,15.58
2023-04-02T14:38:36.126Z,15.40
2023-04-02T14:40:43.922Z,15.49
2023-04-02T14:42:55.043Z,15.67
2023-04-02T14:45:05.525Z,15.69
2023-04-02T14:47:14.294Z,15.29
2023-04-02T14:49:18.876Z,15.07
2023-04-02T14:51:23.283Z,14.85
2023-04-02T14:53:27.791Z,14.77
2023-04-02T14:55:33.292Z,14.79
2023-04-02T14:57:49.091Z,14.69
2023-04-02T15:00:08.183Z,14.59
2023-04-02T15:02:14.970Z,14.61
2023-04-02T15:04:21.437Z,14.72
2023-04-02T15:06:40.107Z,15.06
2023-04-02T15:08:46.780Z,15.54
2023-04-02T15:10:55.394Z,15.97
2023-04-02T15:12:57.326Z,16.34
2023-04-02T15:15:01.699Z,16.68
2023-04-02T15:17:03.308Z,16.83
2023-04-02T15:19:09.013Z,17.14
2023-04-02T15:21:16.990Z,17.36
2023-04-02T15:23:29.201Z,17.38
2023-04-02T15:25:35.771Z,17.53
2023-04-02T15:27:57.274Z,17.32
2023-04-02T15:30:15.051Z,17.09
2023-04-02T15:32:35.027Z,16.61
2023-04-02T15:34:57.821Z,16.20
2023-04-02T15:37:22.306Z,16.24
2023-04-02T15:39:26.826Z,16.30
2023-04-02T15:41:32.372Z,16.51
2023-04-02T15:43:52.623Z,16.04
2023-04-02T15:46:05.525Z,15.57
2023-04-02T15:48:07.196Z,15.25
2023-04-02T15:50:27.661Z,15.05
2023-04-02T15:52:34.231Z,15.14
2023-04-02T15:54:54.852Z,15.74
2023-04-02T15:57:03.083Z,15.68
2023-04-02T15:59:12.446Z,15.70
2023-04-02T16:01:17.623Z,16.01
2023-04-02T16:03:37.736Z,15.91
2023-04-02T16:05:41.604Z,16.05
2023-04-02T16:07:46.078Z,16.22
2023-04-02T16:10:06.258Z,16.39
2023-04-02T16:12:33.913Z,16.35
2023-04-02T16:14:35.442Z,16.16
2023-04-02T16:16:37.034Z,15.89
2023-04-02T16:18:38.570Z,15.90
2023-04-02T16:20:41.722Z,16.02
2023-04-02T16:22:57.242Z,16.22
2023-04-02T16:25:04.678Z,16.45
2023-04-02T16:27:11.800Z,16.70
2023-04-02T16:29:22.136Z,16.84
2023-04-02T16:31:26.987Z,16.83
2023-04-02T16:33:40.678Z,16.83
2023-04-02T16:35:52.228Z,16.78
2023-04-02T16:37:58.854Z,16.75
2023-04-02T16:40:00.377Z,16.57
2023-04-02T16:42:04.751Z,16.53
2023-04-02T16:44:25.323Z,16.38
2023-04-02T16:46:39.068Z,16.30
2023-04-02T16:48:41.823Z,16.24
2023-04-02T16:51:04.331Z,16.18
2023-04-02T16:53:18.314Z,16.08
2023-04-02T16:55:23.698Z,16.03
2023-04-02T16:57:44.825Z,15.96
2023-04-02T16:59:52.152Z,15.76
2023-04-02T17:01:59.555Z,15.65
2023-04-02T17:04:24.881Z,15.51
2023-04-02T17:06:41.426Z,15.42
2023-04-02T17:08:43.714Z,15.32
2023-04-02T17:11:03.999Z,15.27
2023-04-02T17:13:14.480Z,15.19
2023-04-02T17:15:28.884Z,15.16
2023-04-02T17:17:30.490Z,15.08
2023-04-02T17:19:32.589Z,15.03
2023-04-02T17:21:34.107Z,15.00
2023-04-02T17:23:56.360Z,14.91
2023-04-02T17:25:59.357Z,14.83
2023-04-02T17:28:00.971Z,14.80
2023-04-02T17:30:12.180Z,14.72
2023-04-02T17:32:22.053Z,14.62
2023-04-02T17:34:24.357Z,14.62
2023-04-02T17:36:35.146Z,14.61
2023-04-02T17:38:55.390Z,14.66
2023-04-02T17:40:59.893Z,14.68
2023-04-02T17:43:16.384Z,14.66
2023-04-02T17:45:27.165Z,14.62
2023-04-02T17:47:46.809Z,14.60
2023-04-02T17:49:57.500Z,14.57
2023-04-02T17:52:17.513Z,14.51
2023-04-02T17:54:35.070Z,14.50
2023-04-02T17:56:50.533Z,14.52
2023-04-02T17:58:52.123Z,14.52
2023-04-02T18:01:07.752Z,14.54
2023-04-02T18:03:30.137Z,14.53
2023-04-02T18:05:55.885Z,14.53
2023-04-02T18:07:57.582Z,14.52
2023-04-02T18:10:18.034Z,14.50
2023-04-02T18:12:39.680Z,14.42
2023-04-02T18:14:49.016Z,14.31
2023-04-02T18:16:53.848Z,14.29
2023-04-02T18:19:15.860Z,14.25
2023-04-02T18:21:26.306Z,14.24
2023-04-02T18:23:44.987Z,14.22
2023-04-02T18:25:46.985Z,14.19
2023-04-02T18:27:48.500Z,14.16
2023-04-02T18:30:12.022Z,14.10
2023-04-02T18:32:19.342Z,14.07
2023-04-02T18:34:29.838Z,13.97
2023-04-02T18:36:40.224Z,13.96
2023-04-02T18:38:47.447Z,13.96
2023-04-02T18:40:57.880Z,13.98
2023-04-02T18:43:05.148Z,13.93
2023-04-02T18:45:15.409Z,13.86
2023-04-02T18:47:23.047Z,13.89
2023-04-02T18:49:30.694Z,13.91
2023-04-02T18:51:34.033Z,13.82
2023-04-02T18:53:36.012Z,13.80
2023-04-02T18:55:37.489Z,13.77
2023-04-02T18:57:39.115Z,13.79
2023-04-02T18:59:59.570Z,13.82
2023-04-02T19:02:03.593Z,13.78
2023-04-02T19:04:06.498Z,13.81
2023-04-02T19:06:09.458Z,13.77
2023-04-02T19:08:13.206Z,13.76
2023-04-02T19:10:33.722Z,13.75
2023-04-02T19:12:35.209Z,13.75
2023-04-02T19:14:37.218Z,13.70
2023-04-02T19:16:44.828Z,13.65
2023-04-02T19:18:46.358Z,13.66
2023-04-02T19:20:53.288Z,13.64
2023-04-02T19:23:07.522Z,13.63
2023-04-02T19:25:08.953Z,13.70
2023-04-02T19:27:32.722Z,13.71
2023-04-02T19:29:46.963Z,13.71
2023-04-02T19:31:54.698Z,13.77
2023-04-02T19:33:56.526Z,13.80
2023-04-02T19:36:00.911Z,13.84
2023-04-02T19:38:11.014Z,13.87
2023-04-02T19:40:24.483Z,13.84
2023-04-02T19:42:46.051Z,13.83
2023-04-02T19:44:48.438Z,13.76
2023-04-02T19:46:51.686Z,13.65
2023-04-02T19:48:53.190Z,13.49
2023-04-02T19:50:54.641Z,13.45
2023-04-02T19:52:56.544Z,13.43
2023-04-02T19:54:58.276Z,13.46
2023-04-02T19:57:01.365Z,13.40
2023-04-02T19:59:17.108Z,13.22
2023-04-02T20:01:21.643Z,12.80
2023-04-02T20:03:23.629Z,12.72
2023-04-02T20:05:25.124Z,12.75
2023-04-02T20:07:26.531Z,12.79
2023-04-02T20:09:29.678Z,12.82
2023-04-02T20:11:31.337Z,12.87
2023-04-02T20:13:33.102Z,12.87
2023-04-02T20:15:35.152Z,12.82
2023-04-02T20:17:36.759Z,12.82
2023-04-02T20:19:38.355Z,12.83
2023-04-02T20:21:39.890Z,12.85
2023-04-02T20:23:41.482Z,12.86
2023-04-02T20:25:46.905Z,12.86
2023-04-02T20:27:48.429Z,12.83
2023-04-02T20:29:49.948Z,12.78
2023-04-02T20:31:51.887Z,12.78
2023-04-02T20:33:57.104Z,12.83
2023-04-02T20:36:19.105Z,12.73
2023-04-02T20:38:21.594Z,12.67
2023-04-02T20:40:23.214Z,12.71
2023-04-02T20:42:25.492Z,12.69
2023-04-02T20:44:28.769Z,12.65
2023-04-02T20:46:30.952Z,12.67
2023-04-02T20:48:33.258Z,12.73
2023-04-02T20:50:35.431Z,12.70
2023-04-02T20:52:37.753Z,12.65
2023-04-02T20:54:39.836Z,12.67
2023-04-02T20:56:43.476Z,12.67
2023-04-02T20:58:45.635Z,12.67
2023-04-02T21:00:47.759Z,12.66
2023-04-02T21:02:49.663Z,12.69
2023-04-02T21:04:52.109Z,12.75
2023-04-02T21:06:57.128Z,12.66
2023-04-02T21:08:58.698Z,12.55
2023-04-02T21:11:04.205Z,12.55
2023-04-02T21:13:05.922Z,12.55
2023-04-02T21:15:07.907Z,12.47
2023-04-02T21:17:09.455Z,12.45
2023-04-02T21:19:12.901Z,12.42
2023-04-02T21:21:14.614Z,12.41
2023-04-02T21:23:16.238Z,12.40
2023-04-02T21:25:17.808Z,12.28
2023-04-02T21:27:19.349Z,12.27
2023-04-02T21:29:21.028Z,12.27
2023-04-02T21:31:23.586Z,12.25
2023-04-02T21:33:25.245Z,12.24
2023-04-02T21:35:26.703Z,12.26
2023-04-02T21:37:28.169Z,12.25
2023-04-02T21:39:29.678Z,12.26
2023-04-02T21:41:32.130Z,12.25
2023-04-02T21:43:33.706Z,12.20
2023-04-02T21:45:35.548Z,12.20
2023-04-02T21:47:37.159Z,12.23
2023-04-02T21:49:38.706Z,12.13
2023-04-02T21:51:41.193Z,12.12
2023-04-02T21:53:42.957Z,12.06
2023-04-02T21:55:44.483Z,11.98
2023-04-02T21:57:45.984Z,11.98
2023-04-02T21:59:47.497Z,11.99
2023-04-02T22:01:49.930Z,11.99
2023-04-02T22:03:51.717Z,11.98
2023-04-02T22:06:02.301Z,11.96
2023-04-02T22:08:03.860Z,11.82
2023-04-02T22:10:05.768Z,11.86
2023-04-02T22:12:08.212Z,11.87
2023-04-02T22:14:09.910Z,11.86
2023-04-02T22:16:12.534Z,11.73
2023-04-02T22:18:14.035Z,11.75
2023-04-02T22:20:15.599Z,11.74
2023-04-02T22:22:17.118Z,11.80
2023-04-02T22:24:19.045Z,11.85
2023-04-02T22:26:21.505Z,11.87
2023-04-02T22:28:23.011Z,11.90
2023-04-02T22:30:26.616Z,11.88
2023-04-02T22:32:28.201Z,11.88
2023-04-02T22:34:29.690Z,11.90
2023-04-02T22:36:31.297Z,11.93
2023-04-02T22:38:33.306Z,11.90
2023-04-02T22:40:35.112Z,11.87
2023-04-02T22:42:38.376Z,11.82
2023-04-02T22:44:39.827Z,11.79
2023-04-02T22:46:41.490Z,11.77
2023-04-02T22:48:43.677Z,11.79
2023-04-02T22:50:49.263Z,11.79
2023-04-02T22:52:50.758Z,11.75
2023-04-02T22:54:52.277Z,11.72
2023-04-02T22:56:53.835Z,11.66
2023-04-02T22:58:55.430Z,11.68
2023-04-02T23:01:02.732Z,11.67
2023-04-02T23:03:04.354Z,11.65
2023-04-02T23:05:06.297Z,11.58
2023-04-02T23:07:07.878Z,11.58
2023-04-02T23:09:09.354Z,11.55
2023-04-02T23:11:11.955Z,11.57
2023-04-02T23:13:13.421Z,11.54
2023-04-02T23:15:14.961Z,11.55
2023-04-02T23:17:16.484Z,11.55
2023-04-02T23:19:18.016Z,11.50
2023-04-02T23:21:19.712Z,11.32
2023-04-02T23:23:21.504Z,11.17
2023-04-02T23:25:23.022Z,10.92
2023-04-02T23:27:24.540Z,10.94
2023-04-02T23:29:26.026Z,10.89
2023-04-02T23:31:27.592Z,10.90
2023-04-02T23:33:29.185Z,10.95
2023-04-02T23:35:30.720Z,11.00
2023-04-02T23:37:32.259Z,11.04
2023-04-02T23:39:33.720Z,11.02
2023-04-02T23:41:35.471Z,11.05
2023-04-02T23:43:36.961Z,11.09
2023-04-02T23:45:38.484Z,11.11
2023-04-02T23:47:40.102Z,11.16
2023-04-02T23:49:47.520Z,11.21
2023-04-02T23:51:49.061Z,11.24
2023-04-02T23:53:50.964Z,11.26
2023-04-02T23:55:52.447Z,11.25
2023-04-02T23:57:53.958Z,11.23
2023-04-02T23:59:55.547Z,11.22
